sensor_id;sensor_type;location;lat;lon;timestamp;temperature;humidity
13833;DHT22;6987;19.472;-99.276;2023-11-19T00:00:36;18.20;20.00
13833;DHT22;6987;19.472;-99.276;2023-11-19T00:03:05;18.10;20.40
13833;DHT22;6987;19.472;-99.276;2023-11-19T00:05:35;18.00;19.90
13833;DHT22;6987;19.472;-99.276;2023-11-19T00:08:04;17.90;20.00
13833;DHT22;6987;19.472;-99.276;2023-11-19T00:10:35;17.80;19.80
13833;DHT22;6987;19.472;-99.276;2023-11-19T00:13:04;17.80;21.00
13833;DHT22;6987;19.472;-99.276;2023-11-19T00:15:35;17.60;20.40
13833;DHT22;6987;19.472;-99.276;2023-11-19T00:18:05;17.60;34.30
13833;DHT22;6987;19.472;-99.276;2023-11-19T00:20:35;17.60;20.50
13833;DHT22;6987;19.472;-99.276;2023-11-19T00:23:04;17.50;20.80
13833;DHT22;6987;19.472;-99.276;2023-11-19T00:25:34;17.40;20.80
13833;DHT22;6987;19.472;-99.276;2023-11-19T00:28:05;17.40;21.10
13833;DHT22;6987;19.472;-99.276;2023-11-19T00:30:36;17.30;21.90
13833;DHT22;6987;19.472;-99.276;2023-11-19T00:33:05;17.20;22.90
13833;DHT22;6987;19.472;-99.276;2023-11-19T00:35:35;17.10;22.10
13833;DHT22;6987;19.472;-99.276;2023-11-19T00:38:05;17.10;22.60
13833;DHT22;6987;19.472;-99.276;2023-11-19T00:40:34;17.10;23.20
13833;DHT22;6987;19.472;-99.276;2023-11-19T00:43:03;17.00;23.10
13833;DHT22;6987;19.472;-99.276;2023-11-19T00:45:33;17.00;24.30
13833;DHT22;6987;19.472;-99.276;2023-11-19T00:48:04;16.90;24.00
13833;DHT22;6987;19.472;-99.276;2023-11-19T00:50:33;16.90;25.50
13833;DHT22;6987;19.472;-99.276;2023-11-19T00:53:03;16.80;23.40
13833;DHT22;6987;19.472;-99.276;2023-11-19T00:55:32;16.80;23.80
13833;DHT22;6987;19.472;-99.276;2023-11-19T00:58:01;16.60;24.60
13833;DHT22;6987;19.472;-99.276;2023-11-19T01:00:31;16.50;26.20
13833;DHT22;6987;19.472;-99.276;2023-11-19T01:03:00;16.50;27.30
13833;DHT22;6987;19.472;-99.276;2023-11-19T01:05:31;16.50;25.60
13833;DHT22;6987;19.472;-99.276;2023-11-19T01:08:00;16.30;26.60
13833;DHT22;6987;19.472;-99.276;2023-11-19T01:10:31;16.20;26.80
13833;DHT22;6987;19.472;-99.276;2023-11-19T01:13:01;16.20;27.30
13833;DHT22;6987;19.472;-99.276;2023-11-19T01:15:32;16.00;27.50
13833;DHT22;6987;19.472;-99.276;2023-11-19T01:18:01;15.90;29.60
13833;DHT22;6987;19.472;-99.276;2023-11-19T01:20:33;15.80;28.10
13833;DHT22;6987;19.472;-99.276;2023-11-19T01:23:02;15.80;28.40
13833;DHT22;6987;19.472;-99.276;2023-11-19T01:25:32;15.70;28.00
13833;DHT22;6987;19.472;-99.276;2023-11-19T01:28:02;15.70;27.70
13833;DHT22;6987;19.472;-99.276;2023-11-19T01:30:31;15.60;29.00
13833;DHT22;6987;19.472;-99.276;2023-11-19T01:33:01;15.50;27.60
13833;DHT22;6987;19.472;-99.276;2023-11-19T01:35:30;15.40;28.00
13833;DHT22;6987;19.472;-99.276;2023-11-19T01:38:01;15.30;29.30
13833;DHT22;6987;19.472;-99.276;2023-11-19T01:40:30;15.20;29.40
13833;DHT22;6987;19.472;-99.276;2023-11-19T01:42:59;15.20;29.60
13833;DHT22;6987;19.472;-99.276;2023-11-19T01:45:30;15.10;30.30
13833;DHT22;6987;19.472;-99.276;2023-11-19T01:48:02;15.10;29.90
13833;DHT22;6987;19.472;-99.276;2023-11-19T01:50:32;15.10;29.80
13833;DHT22;6987;19.472;-99.276;2023-11-19T01:53:04;15.00;31.20
13833;DHT22;6987;19.472;-99.276;2023-11-19T01:55:33;15.00;30.70
13833;DHT22;6987;19.472;-99.276;2023-11-19T01:58:03;14.90;30.00
13833;DHT22;6987;19.472;-99.276;2023-11-19T02:00:32;14.80;31.00
13833;DHT22;6987;19.472;-99.276;2023-11-19T02:03:01;14.70;31.30
13833;DHT22;6987;19.472;-99.276;2023-11-19T02:05:33;14.70;33.10
13833;DHT22;6987;19.472;-99.276;2023-11-19T02:08:04;14.60;33.00
13833;DHT22;6987;19.472;-99.276;2023-11-19T02:10:33;14.60;32.90
13833;DHT22;6987;19.472;-99.276;2023-11-19T02:13:03;14.50;31.10
13833;DHT22;6987;19.472;-99.276;2023-11-19T02:15:33;14.40;32.50
13833;DHT22;6987;19.472;-99.276;2023-11-19T02:18:19;14.40;33.60
13833;DHT22;6987;19.472;-99.276;2023-11-19T02:20:49;14.40;32.70
13833;DHT22;6987;19.472;-99.276;2023-11-19T02:23:21;14.40;33.70
13833;DHT22;6987;19.472;-99.276;2023-11-19T02:26:02;14.30;33.60
13833;DHT22;6987;19.472;-99.276;2023-11-19T02:28:34;14.20;35.20
13833;DHT22;6987;19.472;-99.276;2023-11-19T02:31:04;14.20;35.00
13833;DHT22;6987;19.472;-99.276;2023-11-19T02:33:36;14.10;34.40
13833;DHT22;6987;19.472;-99.276;2023-11-19T02:36:06;14.00;35.90
13833;DHT22;6987;19.472;-99.276;2023-11-19T02:38:36;13.90;34.70
13833;DHT22;6987;19.472;-99.276;2023-11-19T02:41:06;13.80;35.70
13833;DHT22;6987;19.472;-99.276;2023-11-19T02:43:38;13.70;35.00
13833;DHT22;6987;19.472;-99.276;2023-11-19T02:46:07;13.70;35.30
13833;DHT22;6987;19.472;-99.276;2023-11-19T02:48:36;13.60;35.10
13833;DHT22;6987;19.472;-99.276;2023-11-19T02:51:06;13.60;36.60
13833;DHT22;6987;19.472;-99.276;2023-11-19T02:53:36;13.60;57.70
13833;DHT22;6987;19.472;-99.276;2023-11-19T02:56:07;13.60;35.70
13833;DHT22;6987;19.472;-99.276;2023-11-19T02:58:45;13.50;36.40
13833;DHT22;6987;19.472;-99.276;2023-11-19T03:01:22;13.40;36.00
13833;DHT22;6987;19.472;-99.276;2023-11-19T03:03:56;13.40;35.70
13833;DHT22;6987;19.472;-99.276;2023-11-19T03:06:27;13.30;35.70
13833;DHT22;6987;19.472;-99.276;2023-11-19T03:08:56;13.20;36.00
13833;DHT22;6987;19.472;-99.276;2023-11-19T03:11:30;13.20;36.30
13833;DHT22;6987;19.472;-99.276;2023-11-19T03:14:01;13.20;38.50
13833;DHT22;6987;19.472;-99.276;2023-11-19T03:16:31;13.10;37.20
13833;DHT22;6987;19.472;-99.276;2023-11-19T03:19:00;13.10;36.50
13833;DHT22;6987;19.472;-99.276;2023-11-19T03:21:31;13.10;37.80
13833;DHT22;6987;19.472;-99.276;2023-11-19T03:24:00;13.10;37.70
13833;DHT22;6987;19.472;-99.276;2023-11-19T03:26:30;13.10;38.90
13833;DHT22;6987;19.472;-99.276;2023-11-19T03:29:02;12.90;37.10
13833;DHT22;6987;19.472;-99.276;2023-11-19T03:31:31;13.00;37.70
13833;DHT22;6987;19.472;-99.276;2023-11-19T03:34:00;12.90;39.80
13833;DHT22;6987;19.472;-99.276;2023-11-19T03:36:33;12.90;40.90
13833;DHT22;6987;19.472;-99.276;2023-11-19T03:39:02;12.90;39.00
13833;DHT22;6987;19.472;-99.276;2023-11-19T03:41:32;12.90;38.60
13833;DHT22;6987;19.472;-99.276;2023-11-19T03:44:03;12.90;38.90
13833;DHT22;6987;19.472;-99.276;2023-11-19T03:46:32;12.80;39.50
13833;DHT22;6987;19.472;-99.276;2023-11-19T03:49:01;12.80;40.40
13833;DHT22;6987;19.472;-99.276;2023-11-19T03:51:33;12.70;40.50
13833;DHT22;6987;19.472;-99.276;2023-11-19T03:54:02;12.70;39.80
13833;DHT22;6987;19.472;-99.276;2023-11-19T03:56:33;12.70;39.70
13833;DHT22;6987;19.472;-99.276;2023-11-19T03:59:04;12.60;40.50
13833;DHT22;6987;19.472;-99.276;2023-11-19T04:01:34;12.70;43.00
13833;DHT22;6987;19.472;-99.276;2023-11-19T04:04:04;12.60;40.90
13833;DHT22;6987;19.472;-99.276;2023-11-19T04:06:33;12.60;41.60
13833;DHT22;6987;19.472;-99.276;2023-11-19T04:09:03;12.50;42.40
13833;DHT22;6987;19.472;-99.276;2023-11-19T04:11:33;12.50;41.50
13833;DHT22;6987;19.472;-99.276;2023-11-19T04:14:04;12.40;42.30
13833;DHT22;6987;19.472;-99.276;2023-11-19T04:16:33;12.40;41.90
13833;DHT22;6987;19.472;-99.276;2023-11-19T04:19:02;12.30;41.40
13833;DHT22;6987;19.472;-99.276;2023-11-19T04:21:31;12.40;42.40
13833;DHT22;6987;19.472;-99.276;2023-11-19T04:24:00;12.30;42.60
13833;DHT22;6987;19.472;-99.276;2023-11-19T04:26:30;12.30;42.10
13833;DHT22;6987;19.472;-99.276;2023-11-19T04:28:59;12.20;42.90
13833;DHT22;6987;19.472;-99.276;2023-11-19T04:31:31;12.20;42.00
13833;DHT22;6987;19.472;-99.276;2023-11-19T04:34:01;12.10;42.70
13833;DHT22;6987;19.472;-99.276;2023-11-19T04:36:30;12.10;43.10
13833;DHT22;6987;19.472;-99.276;2023-11-19T04:39:00;11.90;43.70
13833;DHT22;6987;19.472;-99.276;2023-11-19T04:41:29;11.90;43.00
13833;DHT22;6987;19.472;-99.276;2023-11-19T04:43:58;12.00;44.10
13833;DHT22;6987;19.472;-99.276;2023-11-19T04:46:27;11.80;45.30
13833;DHT22;6987;19.472;-99.276;2023-11-19T04:48:59;11.80;44.30
13833;DHT22;6987;19.472;-99.276;2023-11-19T04:51:28;11.80;44.80
13833;DHT22;6987;19.472;-99.276;2023-11-19T04:53:57;11.80;45.30
13833;DHT22;6987;19.472;-99.276;2023-11-19T04:56:26;11.70;46.30
13833;DHT22;6987;19.472;-99.276;2023-11-19T04:58:55;11.70;44.00
13833;DHT22;6987;19.472;-99.276;2023-11-19T05:01:25;11.80;45.80
13833;DHT22;6987;19.472;-99.276;2023-11-19T05:03:55;11.70;45.50
13833;DHT22;6987;19.472;-99.276;2023-11-19T05:06:28;11.70;45.00
13833;DHT22;6987;19.472;-99.276;2023-11-19T05:08:59;11.70;44.70
13833;DHT22;6987;19.472;-99.276;2023-11-19T05:11:31;11.70;46.20
13833;DHT22;6987;19.472;-99.276;2023-11-19T05:14:02;11.70;45.90
13833;DHT22;6987;19.472;-99.276;2023-11-19T05:16:32;11.60;45.60
13833;DHT22;6987;19.472;-99.276;2023-11-19T05:19:02;11.60;46.00
13833;DHT22;6987;19.472;-99.276;2023-11-19T05:21:33;11.60;46.20
13833;DHT22;6987;19.472;-99.276;2023-11-19T05:24:02;11.70;46.60
13833;DHT22;6987;19.472;-99.276;2023-11-19T05:26:33;11.60;47.10
13833;DHT22;6987;19.472;-99.276;2023-11-19T05:29:02;11.60;46.10
13833;DHT22;6987;19.472;-99.276;2023-11-19T05:31:31;11.60;48.60
13833;DHT22;6987;19.472;-99.276;2023-11-19T05:34:00;11.50;48.10
13833;DHT22;6987;19.472;-99.276;2023-11-19T05:36:31;11.40;47.20
13833;DHT22;6987;19.472;-99.276;2023-11-19T05:39:01;11.30;47.90
13833;DHT22;6987;19.472;-99.276;2023-11-19T05:41:30;11.20;47.30
13833;DHT22;6987;19.472;-99.276;2023-11-19T05:43:59;11.20;47.80
13833;DHT22;6987;19.472;-99.276;2023-11-19T05:46:29;11.10;47.80
13833;DHT22;6987;19.472;-99.276;2023-11-19T05:48:58;11.10;47.30
13833;DHT22;6987;19.472;-99.276;2023-11-19T05:51:27;11.00;50.60
13833;DHT22;6987;19.472;-99.276;2023-11-19T05:53:58;10.90;49.00
13833;DHT22;6987;19.472;-99.276;2023-11-19T05:56:27;10.90;48.80
13833;DHT22;6987;19.472;-99.276;2023-11-19T05:58:59;11.00;49.70
13833;DHT22;6987;19.472;-99.276;2023-11-19T06:01:30;11.40;50.00
13833;DHT22;6987;19.472;-99.276;2023-11-19T06:03:59;11.00;50.40
13833;DHT22;6987;19.472;-99.276;2023-11-19T06:06:29;11.00;52.00
13833;DHT22;6987;19.472;-99.276;2023-11-19T06:09:00;10.90;50.60
13833;DHT22;6987;19.472;-99.276;2023-11-19T06:11:33;10.80;50.30
13833;DHT22;6987;19.472;-99.276;2023-11-19T06:14:03;10.80;51.20
13833;DHT22;6987;19.472;-99.276;2023-11-19T06:16:32;10.80;50.50
13833;DHT22;6987;19.472;-99.276;2023-11-19T06:19:01;10.80;50.30
13833;DHT22;6987;19.472;-99.276;2023-11-19T06:21:31;10.80;51.40
13833;DHT22;6987;19.472;-99.276;2023-11-19T06:24:04;10.70;49.80
13833;DHT22;6987;19.472;-99.276;2023-11-19T06:26:34;10.60;77.20
13833;DHT22;6987;19.472;-99.276;2023-11-19T06:29:03;10.50;50.90
13833;DHT22;6987;19.472;-99.276;2023-11-19T06:31:32;10.50;50.80
13833;DHT22;6987;19.472;-99.276;2023-11-19T06:34:01;10.60;53.10
13833;DHT22;6987;19.472;-99.276;2023-11-19T06:36:30;10.50;50.80
13833;DHT22;6987;19.472;-99.276;2023-11-19T06:39:00;10.50;53.10
13833;DHT22;6987;19.472;-99.276;2023-11-19T06:41:32;10.50;51.40
13833;DHT22;6987;19.472;-99.276;2023-11-19T06:44:01;10.50;52.80
13833;DHT22;6987;19.472;-99.276;2023-11-19T06:46:32;10.40;52.80
13833;DHT22;6987;19.472;-99.276;2023-11-19T06:49:01;10.40;53.80
13833;DHT22;6987;19.472;-99.276;2023-11-19T06:51:31;10.40;53.10
13833;DHT22;6987;19.472;-99.276;2023-11-19T06:54:00;10.40;52.40
13833;DHT22;6987;19.472;-99.276;2023-11-19T06:56:31;10.40;53.40
13833;DHT22;6987;19.472;-99.276;2023-11-19T06:59:00;10.30;53.10
13833;DHT22;6987;19.472;-99.276;2023-11-19T07:01:35;10.30;53.70
13833;DHT22;6987;19.472;-99.276;2023-11-19T07:04:06;10.20;54.00
13833;DHT22;6987;19.472;-99.276;2023-11-19T07:06:37;10.20;52.90
13833;DHT22;6987;19.472;-99.276;2023-11-19T07:09:08;10.20;53.30
13833;DHT22;6987;19.472;-99.276;2023-11-19T07:11:40;10.20;54.10
13833;DHT22;6987;19.472;-99.276;2023-11-19T07:14:11;10.20;54.00
13833;DHT22;6987;19.472;-99.276;2023-11-19T07:16:40;10.20;54.70
13833;DHT22;6987;19.472;-99.276;2023-11-19T07:19:09;10.10;54.50
13833;DHT22;6987;19.472;-99.276;2023-11-19T07:21:41;10.10;54.70
13833;DHT22;6987;19.472;-99.276;2023-11-19T07:24:12;10.10;56.50
13833;DHT22;6987;19.472;-99.276;2023-11-19T07:26:44;10.10;54.90
13833;DHT22;6987;19.472;-99.276;2023-11-19T07:29:14;10.20;54.90
13833;DHT22;6987;19.472;-99.276;2023-11-19T07:31:43;10.20;55.20
13833;DHT22;6987;19.472;-99.276;2023-11-19T07:34:12;10.10;54.70
13833;DHT22;6987;19.472;-99.276;2023-11-19T07:36:42;10.10;54.30
13833;DHT22;6987;19.472;-99.276;2023-11-19T07:39:11;10.00;54.70
13833;DHT22;6987;19.472;-99.276;2023-11-19T07:41:43;10.10;56.20
13833;DHT22;6987;19.472;-99.276;2023-11-19T07:44:12;10.10;54.70
13833;DHT22;6987;19.472;-99.276;2023-11-19T07:46:41;10.00;54.60
13833;DHT22;6987;19.472;-99.276;2023-11-19T07:49:11;10.00;55.10
13833;DHT22;6987;19.472;-99.276;2023-11-19T07:51:41;9.90;55.50
13833;DHT22;6987;19.472;-99.276;2023-11-19T07:54:10;9.90;55.20
13833;DHT22;6987;19.472;-99.276;2023-11-19T07:56:40;9.80;54.50
13833;DHT22;6987;19.472;-99.276;2023-11-19T07:59:11;9.80;56.20
13833;DHT22;6987;19.472;-99.276;2023-11-19T08:01:41;9.80;55.00
13833;DHT22;6987;19.472;-99.276;2023-11-19T08:04:10;9.60;55.40
13833;DHT22;6987;19.472;-99.276;2023-11-19T08:06:39;9.60;55.80
13833;DHT22;6987;19.472;-99.276;2023-11-19T08:09:09;9.60;56.30
13833;DHT22;6987;19.472;-99.276;2023-11-19T08:11:40;9.70;56.60
13833;DHT22;6987;19.472;-99.276;2023-11-19T08:14:11;9.70;57.50
13833;DHT22;6987;19.472;-99.276;2023-11-19T08:16:43;9.70;85.40
13833;DHT22;6987;19.472;-99.276;2023-11-19T08:19:13;9.70;56.90
13833;DHT22;6987;19.472;-99.276;2023-11-19T08:21:42;9.60;56.80
13833;DHT22;6987;19.472;-99.276;2023-11-19T08:24:11;9.70;59.20
13833;DHT22;6987;19.472;-99.276;2023-11-19T08:26:40;9.60;61.40
13833;DHT22;6987;19.472;-99.276;2023-11-19T08:29:12;9.60;59.40
13833;DHT22;6987;19.472;-99.276;2023-11-19T08:31:43;9.60;57.80
13833;DHT22;6987;19.472;-99.276;2023-11-19T08:34:12;9.60;58.40
13833;DHT22;6987;19.472;-99.276;2023-11-19T08:36:42;9.60;58.30
13833;DHT22;6987;19.472;-99.276;2023-11-19T08:39:11;9.60;59.10
13833;DHT22;6987;19.472;-99.276;2023-11-19T08:41:40;9.60;58.70
13833;DHT22;6987;19.472;-99.276;2023-11-19T08:44:11;9.50;57.80
13833;DHT22;6987;19.472;-99.276;2023-11-19T08:46:47;9.50;58.20
13833;DHT22;6987;19.472;-99.276;2023-11-19T08:49:17;9.50;59.30
13833;DHT22;6987;19.472;-99.276;2023-11-19T08:51:46;9.50;58.30
13833;DHT22;6987;19.472;-99.276;2023-11-19T08:54:15;9.40;58.90
13833;DHT22;6987;19.472;-99.276;2023-11-19T08:56:47;9.30;59.20
13833;DHT22;6987;19.472;-99.276;2023-11-19T08:59:19;9.30;88.50
13833;DHT22;6987;19.472;-99.276;2023-11-19T09:01:48;9.40;60.90
13833;DHT22;6987;19.472;-99.276;2023-11-19T09:04:17;9.30;61.10
13833;DHT22;6987;19.472;-99.276;2023-11-19T09:06:49;9.30;60.00
13833;DHT22;6987;19.472;-99.276;2023-11-19T09:09:18;9.40;59.80
13833;DHT22;6987;19.472;-99.276;2023-11-19T09:11:47;9.30;60.10
13833;DHT22;6987;19.472;-99.276;2023-11-19T09:14:18;9.60;59.70
13833;DHT22;6987;19.472;-99.276;2023-11-19T09:16:51;9.30;61.20
13833;DHT22;6987;19.472;-99.276;2023-11-19T09:19:20;9.30;59.90
13833;DHT22;6987;19.472;-99.276;2023-11-19T09:21:49;9.30;61.10
13833;DHT22;6987;19.472;-99.276;2023-11-19T09:24:18;9.20;60.60
13833;DHT22;6987;19.472;-99.276;2023-11-19T09:26:47;9.10;61.70
13833;DHT22;6987;19.472;-99.276;2023-11-19T09:29:18;9.10;60.60
13833;DHT22;6987;19.472;-99.276;2023-11-19T09:31:48;9.10;61.50
13833;DHT22;6987;19.472;-99.276;2023-11-19T09:34:17;9.10;61.50
13833;DHT22;6987;19.472;-99.276;2023-11-19T09:36:47;9.10;63.60
13833;DHT22;6987;19.472;-99.276;2023-11-19T09:39:16;9.00;62.20
13833;DHT22;6987;19.472;-99.276;2023-11-19T09:41:45;9.10;63.60
13833;DHT22;6987;19.472;-99.276;2023-11-19T09:44:16;9.10;61.00
13833;DHT22;6987;19.472;-99.276;2023-11-19T09:46:48;9.10;62.30
13833;DHT22;6987;19.472;-99.276;2023-11-19T09:49:21;9.10;62.50
13833;DHT22;6987;19.472;-99.276;2023-11-19T09:51:51;9.10;62.60
13833;DHT22;6987;19.472;-99.276;2023-11-19T09:54:21;9.00;62.20
13833;DHT22;6987;19.472;-99.276;2023-11-19T09:56:49;8.90;63.90
13833;DHT22;6987;19.472;-99.276;2023-11-19T09:59:19;8.90;66.00
13833;DHT22;6987;19.472;-99.276;2023-11-19T10:01:50;8.90;65.80
13833;DHT22;6987;19.472;-99.276;2023-11-19T10:04:19;9.00;65.20
13833;DHT22;6987;19.472;-99.276;2023-11-19T10:06:49;8.90;62.30
13833;DHT22;6987;19.472;-99.276;2023-11-19T10:09:20;9.00;64.40
13833;DHT22;6987;19.472;-99.276;2023-11-19T10:11:49;9.00;65.50
13833;DHT22;6987;19.472;-99.276;2023-11-19T10:14:22;8.90;63.60
13833;DHT22;6987;19.472;-99.276;2023-11-19T10:16:55;9.00;63.20
13833;DHT22;6987;19.472;-99.276;2023-11-19T10:19:26;8.90;63.90
13833;DHT22;6987;19.472;-99.276;2023-11-19T10:21:56;8.90;64.50
13833;DHT22;6987;19.472;-99.276;2023-11-19T10:24:32;8.90;65.00
13833;DHT22;6987;19.472;-99.276;2023-11-19T10:27:01;8.90;66.30
13833;DHT22;6987;19.472;-99.276;2023-11-19T10:29:31;8.90;64.50
13833;DHT22;6987;19.472;-99.276;2023-11-19T10:32:02;8.90;65.50
13833;DHT22;6987;19.472;-99.276;2023-11-19T10:34:31;9.00;66.40
13833;DHT22;6987;19.472;-99.276;2023-11-19T10:37:00;9.00;65.00
13833;DHT22;6987;19.472;-99.276;2023-11-19T10:39:52;8.90;66.30
13833;DHT22;6987;19.472;-99.276;2023-11-19T10:42:22;8.90;65.10
13833;DHT22;6987;19.472;-99.276;2023-11-19T10:44:52;8.80;64.20
13833;DHT22;6987;19.472;-99.276;2023-11-19T10:47:24;8.80;66.40
13833;DHT22;6987;19.472;-99.276;2023-11-19T10:49:55;8.70;65.20
13833;DHT22;6987;19.472;-99.276;2023-11-19T10:52:25;8.80;67.80
13833;DHT22;6987;19.472;-99.276;2023-11-19T10:55:00;8.90;66.10
13833;DHT22;6987;19.472;-99.276;2023-11-19T10:57:33;8.80;65.70
13833;DHT22;6987;19.472;-99.276;2023-11-19T11:00:07;8.80;66.10
13833;DHT22;6987;19.472;-99.276;2023-11-19T11:02:41;8.80;66.20
13833;DHT22;6987;19.472;-99.276;2023-11-19T11:05:15;8.80;65.80
13833;DHT22;6987;19.472;-99.276;2023-11-19T11:07:45;8.70;66.50
13833;DHT22;6987;19.472;-99.276;2023-11-19T11:10:15;8.60;66.90
13833;DHT22;6987;19.472;-99.276;2023-11-19T11:12:46;8.50;67.80
13833;DHT22;6987;19.472;-99.276;2023-11-19T11:15:19;8.40;67.40
13833;DHT22;6987;19.472;-99.276;2023-11-19T11:17:50;8.50;66.60
13833;DHT22;6987;19.472;-99.276;2023-11-19T11:20:22;8.40;66.50
13833;DHT22;6987;19.472;-99.276;2023-11-19T11:23:02;8.50;68.20
13833;DHT22;6987;19.472;-99.276;2023-11-19T11:25:43;8.50;69.10
13833;DHT22;6987;19.472;-99.276;2023-11-19T11:28:26;8.50;68.00
13833;DHT22;6987;19.472;-99.276;2023-11-19T11:31:12;8.40;66.90
13833;DHT22;6987;19.472;-99.276;2023-11-19T11:34:01;8.40;67.90
13833;DHT22;6987;19.472;-99.276;2023-11-19T11:36:38;8.30;69.50
13833;DHT22;6987;19.472;-99.276;2023-11-19T11:39:13;8.30;68.40
13833;DHT22;6987;19.472;-99.276;2023-11-19T11:41:43;8.10;68.20
13833;DHT22;6987;19.472;-99.276;2023-11-19T11:44:12;8.10;68.10
13833;DHT22;6987;19.472;-99.276;2023-11-19T11:46:57;8.20;69.30
13833;DHT22;6987;19.472;-99.276;2023-11-19T11:49:29;8.30;73.70
13833;DHT22;6987;19.472;-99.276;2023-11-19T11:52:03;8.20;69.50
13833;DHT22;6987;19.472;-99.276;2023-11-19T11:54:33;8.10;69.70
13833;DHT22;6987;19.472;-99.276;2023-11-19T11:57:06;8.10;70.90
13833;DHT22;6987;19.472;-99.276;2023-11-19T11:59:53;8.10;74.80
13833;DHT22;6987;19.472;-99.276;2023-11-19T12:02:24;8.20;70.50
13833;DHT22;6987;19.472;-99.276;2023-11-19T12:04:56;8.30;71.00
13833;DHT22;6987;19.472;-99.276;2023-11-19T12:07:25;8.20;70.50
13833;DHT22;6987;19.472;-99.276;2023-11-19T12:10:06;8.10;70.90
13833;DHT22;6987;19.472;-99.276;2023-11-19T12:12:36;8.10;70.40
13833;DHT22;6987;19.472;-99.276;2023-11-19T12:15:08;8.10;70.90
13833;DHT22;6987;19.472;-99.276;2023-11-19T12:17:48;8.20;70.80
13833;DHT22;6987;19.472;-99.276;2023-11-19T12:20:22;8.10;94.40
13833;DHT22;6987;19.472;-99.276;2023-11-19T12:22:52;8.10;71.30
13833;DHT22;6987;19.472;-99.276;2023-11-19T12:25:21;8.20;71.50
13833;DHT22;6987;19.472;-99.276;2023-11-19T12:27:51;8.10;70.80
13833;DHT22;6987;19.472;-99.276;2023-11-19T12:30:23;8.10;73.20
13833;DHT22;6987;19.472;-99.276;2023-11-19T12:32:52;8.10;72.20
13833;DHT22;6987;19.472;-99.276;2023-11-19T12:35:24;8.20;72.70
13833;DHT22;6987;19.472;-99.276;2023-11-19T12:37:53;8.20;72.30
13833;DHT22;6987;19.472;-99.276;2023-11-19T12:40:23;8.10;71.70
13833;DHT22;6987;19.472;-99.276;2023-11-19T12:42:52;8.00;72.90
13833;DHT22;6987;19.472;-99.276;2023-11-19T12:45:22;7.90;72.70
13833;DHT22;6987;19.472;-99.276;2023-11-19T12:48:04;8.00;72.50
13833;DHT22;6987;19.472;-99.276;2023-11-19T12:50:53;8.00;74.20
13833;DHT22;6987;19.472;-99.276;2023-11-19T12:53:22;8.00;73.60
13833;DHT22;6987;19.472;-99.276;2023-11-19T12:55:53;7.90;74.70
13833;DHT22;6987;19.472;-99.276;2023-11-19T12:58:30;8.00;73.30
13833;DHT22;6987;19.472;-99.276;2023-11-19T13:01:03;8.00;73.80
13833;DHT22;6987;19.472;-99.276;2023-11-19T13:03:33;8.00;72.20
13833;DHT22;6987;19.472;-99.276;2023-11-19T13:06:06;8.00;73.10
13833;DHT22;6987;19.472;-99.276;2023-11-19T13:08:38;8.00;74.30
13833;DHT22;6987;19.472;-99.276;2023-11-19T13:11:09;8.00;73.40
13833;DHT22;6987;19.472;-99.276;2023-11-19T13:13:57;8.00;73.90
13833;DHT22;6987;19.472;-99.276;2023-11-19T13:16:27;8.10;74.50
13833;DHT22;6987;19.472;-99.276;2023-11-19T13:18:56;8.10;76.20
13833;DHT22;6987;19.472;-99.276;2023-11-19T13:21:28;8.20;74.20
13833;DHT22;6987;19.472;-99.276;2023-11-19T13:23:57;8.20;75.40
13833;DHT22;6987;19.472;-99.276;2023-11-19T13:26:26;8.30;74.70
13833;DHT22;6987;19.472;-99.276;2023-11-19T13:28:56;8.30;73.80
13833;DHT22;6987;19.472;-99.276;2023-11-19T13:31:26;8.40;74.60
13833;DHT22;6987;19.472;-99.276;2023-11-19T13:33:55;8.40;77.40
13833;DHT22;6987;19.472;-99.276;2023-11-19T13:36:27;8.40;76.10
13833;DHT22;6987;19.472;-99.276;2023-11-19T13:38:56;8.50;75.20
13833;DHT22;6987;19.472;-99.276;2023-11-19T13:41:26;8.50;76.00
13833;DHT22;6987;19.472;-99.276;2023-11-19T13:43:56;8.50;76.40
13833;DHT22;6987;19.472;-99.276;2023-11-19T13:46:25;8.60;76.70
13833;DHT22;6987;19.472;-99.276;2023-11-19T13:48:54;8.60;80.80
13833;DHT22;6987;19.472;-99.276;2023-11-19T13:51:23;8.70;77.00
13833;DHT22;6987;19.472;-99.276;2023-11-19T13:53:55;8.80;97.80
13833;DHT22;6987;19.472;-99.276;2023-11-19T13:56:24;8.90;78.80
13833;DHT22;6987;19.472;-99.276;2023-11-19T13:58:53;8.90;79.80
13833;DHT22;6987;19.472;-99.276;2023-11-19T14:01:23;9.00;82.20
13833;DHT22;6987;19.472;-99.276;2023-11-19T14:03:52;9.10;81.60
13833;DHT22;6987;19.472;-99.276;2023-11-19T14:06:22;9.30;80.90
13833;DHT22;6987;19.472;-99.276;2023-11-19T14:08:51;9.40;82.90
13833;DHT22;6987;19.472;-99.276;2023-11-19T14:11:22;9.40;82.50
13833;DHT22;6987;19.472;-99.276;2023-11-19T14:13:51;9.50;83.00
13833;DHT22;6987;19.472;-99.276;2023-11-19T14:16:20;9.60;84.40
13833;DHT22;6987;19.472;-99.276;2023-11-19T14:18:49;9.70;84.60
13833;DHT22;6987;19.472;-99.276;2023-11-19T14:21:18;9.90;83.20
13833;DHT22;6987;19.472;-99.276;2023-11-19T14:23:47;10.00;82.70
13833;DHT22;6987;19.472;-99.276;2023-11-19T14:26:17;10.10;86.60
13833;DHT22;6987;19.472;-99.276;2023-11-19T14:28:47;10.30;84.60
13833;DHT22;6987;19.472;-99.276;2023-11-19T14:31:17;10.40;84.00
13833;DHT22;6987;19.472;-99.276;2023-11-19T14:33:46;10.50;84.00
13833;DHT22;6987;19.472;-99.276;2023-11-19T14:36:16;10.60;83.90
13833;DHT22;6987;19.472;-99.276;2023-11-19T14:38:45;10.70;84.00
13833;DHT22;6987;19.472;-99.276;2023-11-19T14:41:14;10.90;83.90
13833;DHT22;6987;19.472;-99.276;2023-11-19T14:43:46;11.00;84.10
13833;DHT22;6987;19.472;-99.276;2023-11-19T14:46:15;11.10;83.50
13833;DHT22;6987;19.472;-99.276;2023-11-19T14:48:44;11.30;82.80
13833;DHT22;6987;19.472;-99.276;2023-11-19T14:51:13;11.60;81.60
13833;DHT22;6987;19.472;-99.276;2023-11-19T14:53:43;11.60;82.00
13833;DHT22;6987;19.472;-99.276;2023-11-19T14:56:12;11.70;80.70
13833;DHT22;6987;19.472;-99.276;2023-11-19T14:58:42;11.80;81.40
13833;DHT22;6987;19.472;-99.276;2023-11-19T15:01:14;11.90;79.30
13833;DHT22;6987;19.472;-99.276;2023-11-19T15:03:45;12.10;79.50
13833;DHT22;6987;19.472;-99.276;2023-11-19T15:06:14;12.20;76.80
13833;DHT22;6987;19.472;-99.276;2023-11-19T15:08:44;12.40;78.50
13833;DHT22;6987;19.472;-99.276;2023-11-19T15:11:13;12.50;76.80
13833;DHT22;6987;19.472;-99.276;2023-11-19T15:13:43;12.60;76.50
13833;DHT22;6987;19.472;-99.276;2023-11-19T15:16:13;12.80;76.20
13833;DHT22;6987;19.472;-99.276;2023-11-19T15:18:48;12.90;74.00
13833;DHT22;6987;19.472;-99.276;2023-11-19T15:21:18;13.10;72.50
13833;DHT22;6987;19.472;-99.276;2023-11-19T15:23:48;13.20;72.40
13833;DHT22;6987;19.472;-99.276;2023-11-19T15:26:17;13.30;71.50
13833;DHT22;6987;19.472;-99.276;2023-11-19T15:28:46;13.40;70.60
13833;DHT22;6987;19.472;-99.276;2023-11-19T15:31:17;13.50;70.40
13833;DHT22;6987;19.472;-99.276;2023-11-19T15:33:46;13.70;70.80
13833;DHT22;6987;19.472;-99.276;2023-11-19T15:36:15;13.80;67.70
13833;DHT22;6987;19.472;-99.276;2023-11-19T15:38:45;13.90;70.20
13833;DHT22;6987;19.472;-99.276;2023-11-19T15:41:14;14.00;67.50
13833;DHT22;6987;19.472;-99.276;2023-11-19T15:43:43;14.20;68.50